createdAt,value
2022-09-27T00:01:16.107Z,5.50
2022-09-27T00:03:45.082Z,4.15
2022-09-27T00:06:22.715Z,5.30
2022-09-27T00:08:51.386Z,3.80
2022-09-27T00:11:32.026Z,4.25
2022-09-27T00:14:01.437Z,3.90
2022-09-27T00:16:32.617Z,3.22
2022-09-27T00:19:04.070Z,4.40
2022-09-27T00:21:32.619Z,4.53
2022-09-27T00:24:01.239Z,2.95
2022-09-27T00:26:29.704Z,3.97
2022-09-27T00:28:58.529Z,4.47
2022-09-27T00:31:30.289Z,5.95
2022-09-27T00:34:01.841Z,3.67
2022-09-27T00:36:31.313Z,3.00
2022-09-27T00:39:01.561Z,3.95
2022-09-27T00:41:33.579Z,4.25
2022-09-27T00:44:23.121Z,3.92
2022-09-27T00:47:11.357Z,2.85
2022-09-27T00:50:06.228Z,4.35
2022-09-27T00:52:55.528Z,2.20
2022-09-27T00:55:29.650Z,6.68
2022-09-27T00:57:58.681Z,4.05
2022-09-27T01:00:27.314Z,3.60
2022-09-27T01:02:56.550Z,3.30
2022-09-27T01:05:28.460Z,11.57
2022-09-27T01:07:59.857Z,3.53
2022-09-27T01:10:35.132Z,2.87
2022-09-27T01:16:34.971Z,3.10
2022-09-27T01:19:25.014Z,2.45
2022-09-27T01:22:15.513Z,2.42
2022-09-27T01:25:02.887Z,3.00
2022-09-27T01:28:01.053Z,4.37
2022-09-27T01:30:56.625Z,2.83
2022-09-27T01:33:40.888Z,3.67
2022-09-27T01:36:14.966Z,2.08
2022-09-27T01:38:56.443Z,4.32
2022-09-27T01:41:47.595Z,2.05
2022-09-27T01:44:28.000Z,2.87
2022-09-27T01:47:21.074Z,1.48
2022-09-27T01:49:56.584Z,2.47
2022-09-27T01:52:33.758Z,2.83
2022-09-27T01:55:07.705Z,1.52
2022-09-27T01:57:41.398Z,2.80
2022-09-27T02:00:12.306Z,2.65
2022-09-27T02:02:52.682Z,2.95
2022-09-27T02:05:31.594Z,2.37
2022-09-27T02:08:04.572Z,1.95
2022-09-27T02:10:43.701Z,2.75
2022-09-27T02:13:22.911Z,2.42
2022-09-27T02:16:11.911Z,4.00
2022-09-27T02:19:18.256Z,2.55
2022-09-27T02:22:17.726Z,3.25
2022-09-27T02:25:25.553Z,3.65
2022-09-27T02:28:06.191Z,6.22
2022-09-27T02:30:36.549Z,3.50
2022-09-27T02:33:05.077Z,4.78
2022-09-27T02:35:34.958Z,6.68
2022-09-27T02:38:06.440Z,2.12
2022-09-27T02:40:42.922Z,4.12
2022-09-27T02:43:14.392Z,1.60
2022-09-27T02:46:05.850Z,2.90
2022-09-27T02:48:40.145Z,2.17
2022-09-27T02:51:22.622Z,2.15
2022-09-27T02:54:11.391Z,4.05
2022-09-27T02:57:13.405Z,2.97
2022-09-27T03:00:19.431Z,3.28
2022-09-27T03:03:04.035Z,2.42
2022-09-27T03:05:41.685Z,2.50
2022-09-27T03:08:12.849Z,3.95
2022-09-27T03:10:42.193Z,2.75
2022-09-27T03:13:10.345Z,2.28
2022-09-27T03:15:38.779Z,2.45
2022-09-27T03:18:16.666Z,2.92
2022-09-27T03:20:48.453Z,1.85
2022-09-27T03:23:16.964Z,2.72
2022-09-27T03:25:46.163Z,3.47
2022-09-27T03:28:15.009Z,3.92
2022-09-27T03:30:46.161Z,2.60
2022-09-27T03:33:16.001Z,3.85
2022-09-27T03:35:45.067Z,3.50
2022-09-27T03:38:14.489Z,3.35
2022-09-27T03:40:43.022Z,2.37
2022-09-27T03:43:11.858Z,2.12
2022-09-27T03:45:39.987Z,5.00
2022-09-27T03:48:08.753Z,5.93
2022-09-27T03:50:37.132Z,2.87
2022-09-27T03:53:05.544Z,2.95
2022-09-27T03:55:34.333Z,3.12
2022-09-27T03:58:03.832Z,3.67
2022-09-27T04:00:36.531Z,1.77
2022-09-27T04:03:05.315Z,3.30
2022-09-27T04:05:35.809Z,2.15
2022-09-27T04:08:06.428Z,3.80
2022-09-27T04:10:34.843Z,2.12
2022-09-27T04:13:02.949Z,2.22
2022-09-27T04:15:31.872Z,1.67
2022-09-27T04:18:01.946Z,2.47
2022-09-27T04:20:32.914Z,2.62
2022-09-27T04:23:01.502Z,3.60
2022-09-27T04:25:29.932Z,2.28
2022-09-27T04:27:58.536Z,2.75
2022-09-27T04:30:28.504Z,3.50
2022-09-27T04:32:58.476Z,2.65
2022-09-27T04:35:47.442Z,3.45
2022-09-27T04:38:16.012Z,3.42
2022-09-27T04:40:45.079Z,3.15
2022-09-27T04:43:13.795Z,3.65
2022-09-27T04:45:43.950Z,3.15
2022-09-27T04:48:12.992Z,4.07
2022-09-27T04:50:41.381Z,4.60
2022-09-27T04:53:16.159Z,3.42
2022-09-27T04:58:15.936Z,2.87
2022-09-27T05:00:44.496Z,3.25
2022-09-27T05:03:16.244Z,3.05
2022-09-27T05:05:50.880Z,5.45
2022-09-27T05:08:19.353Z,3.15
2022-09-27T05:10:48.437Z,4.07
2022-09-27T05:13:18.489Z,3.45
2022-09-27T05:15:46.675Z,2.37
2022-09-27T05:18:16.893Z,4.20
2022-09-27T05:20:59.016Z,3.95
2022-09-27T05:23:28.379Z,4.68
2022-09-27T05:25:57.424Z,3.42
2022-09-27T05:28:25.660Z,4.57
2022-09-27T05:30:54.131Z,3.35
2022-09-27T05:33:22.578Z,3.30
2022-09-27T05:35:56.169Z,3.60
2022-09-27T05:38:25.840Z,5.57
2022-09-27T05:40:54.821Z,4.45
2022-09-27T05:43:24.012Z,3.92
2022-09-27T05:45:53.205Z,5.97
2022-09-27T05:48:22.272Z,5.40
2022-09-27T05:50:51.151Z,4.32
2022-09-27T05:53:19.680Z,5.78
2022-09-27T05:55:49.478Z,5.47
2022-09-27T05:58:18.462Z,6.20
2022-09-27T06:00:47.264Z,6.47
2022-09-27T06:03:17.482Z,7.43
2022-09-27T06:05:51.410Z,7.22
2022-09-27T06:08:22.139Z,7.75
2022-09-27T06:10:52.076Z,6.30
2022-09-27T06:13:20.603Z,7.03
2022-09-27T06:15:50.939Z,8.32
2022-09-27T06:18:19.651Z,8.30
2022-09-27T06:20:48.258Z,7.12
2022-09-27T06:23:20.571Z,5.68
2022-09-27T06:25:51.416Z,13.05
2022-09-27T06:28:20.778Z,5.55
2022-09-27T06:30:50.872Z,7.18
2022-09-27T06:33:21.070Z,7.45
2022-09-27T06:35:50.129Z,11.12
2022-09-27T06:38:18.828Z,8.32
2022-09-27T06:40:49.221Z,4.95
2022-09-27T06:43:20.479Z,5.18
2022-09-27T06:45:51.254Z,7.75
2022-09-27T06:48:21.330Z,5.78
2022-09-27T06:50:49.813Z,7.78
2022-09-27T06:53:18.161Z,5.85
2022-09-27T06:55:46.411Z,7.20
2022-09-27T06:58:33.628Z,6.18
2022-09-27T07:01:04.026Z,6.07
2022-09-27T07:03:40.156Z,6.95
2022-09-27T07:06:19.098Z,7.35
2022-09-27T07:08:52.248Z,6.30
2022-09-27T07:11:23.700Z,6.53
2022-09-27T07:13:53.405Z,4.80
2022-09-27T07:16:21.777Z,7.57
2022-09-27T07:18:50.328Z,7.97
2022-09-27T07:21:18.984Z,10.13
2022-09-27T07:23:48.606Z,5.45
2022-09-27T07:26:17.214Z,9.75
2022-09-27T07:28:46.059Z,5.35
2022-09-27T07:31:15.231Z,6.47
2022-09-27T07:33:43.758Z,13.23
2022-09-27T07:36:13.662Z,6.65
2022-09-27T07:38:42.656Z,7.18
2022-09-27T07:41:14.292Z,6.35
2022-09-27T07:43:46.293Z,8.30
2022-09-27T07:46:14.774Z,9.48
2022-09-27T07:48:43.309Z,9.27
2022-09-27T07:51:12.230Z,6.18
2022-09-27T07:53:40.825Z,8.45
2022-09-27T07:56:10.029Z,9.15
2022-09-27T07:58:39.077Z,8.32
2022-09-27T08:01:07.975Z,15.93
2022-09-27T08:03:36.823Z,9.68
2022-09-27T08:06:05.027Z,11.80
2022-09-27T08:08:33.330Z,9.02
2022-09-27T08:11:15.327Z,9.80
2022-09-27T08:13:45.576Z,8.98
2022-09-27T08:16:14.404Z,8.65
2022-09-27T08:18:44.410Z,13.73
2022-09-27T08:21:12.700Z,11.70
2022-09-27T08:23:42.859Z,8.88
2022-09-27T08:26:11.309Z,11.30
2022-09-27T08:28:40.237Z,11.60
2022-09-27T08:31:12.751Z,11.90
2022-09-27T08:33:41.789Z,11.25
2022-09-27T08:36:13.780Z,11.02
2022-09-27T08:38:42.975Z,10.07
2022-09-27T08:41:30.169Z,12.27
2022-09-27T08:44:08.023Z,11.30
2022-09-27T08:47:08.765Z,9.73
2022-09-27T08:49:49.339Z,8.27
2022-09-27T08:52:27.885Z,10.50
2022-09-27T08:55:01.565Z,10.75
2022-09-27T08:57:29.764Z,10.90
2022-09-27T09:00:07.337Z,9.13
2022-09-27T09:02:37.463Z,11.23
2022-09-27T09:05:17.881Z,8.93
2022-09-27T09:07:57.005Z,8.75
2022-09-27T09:11:16.460Z,13.00
2022-09-27T09:14:18.132Z,8.30
2022-09-27T09:17:00.587Z,8.75
2022-09-27T09:19:37.848Z,8.73
2022-09-27T09:22:29.072Z,7.35
2022-09-27T09:25:16.328Z,9.18
2022-09-27T09:27:49.055Z,8.20
2022-09-27T09:30:23.896Z,8.50
2022-09-27T09:33:02.790Z,6.57
2022-09-27T09:36:11.420Z,11.38
2022-09-27T09:38:40.021Z,4.95
2022-09-27T09:41:39.332Z,8.55
2022-09-27T09:44:16.478Z,10.30
2022-09-27T09:46:57.425Z,9.15
2022-09-27T09:49:43.354Z,5.30
2022-09-27T09:52:18.236Z,7.07
2022-09-27T09:55:00.506Z,5.90
2022-09-27T09:57:36.489Z,9.35
2022-09-27T10:00:14.322Z,7.50
2022-09-27T10:02:46.424Z,6.40
2022-09-27T10:05:23.692Z,9.63
2022-09-27T10:07:56.521Z,8.77
2022-09-27T10:10:25.370Z,8.23
2022-09-27T10:12:57.383Z,7.70
2022-09-27T10:15:30.168Z,7.97
2022-09-27T10:17:59.986Z,9.50
2022-09-27T10:20:47.119Z,7.15
2022-09-27T10:23:21.498Z,6.12
2022-09-27T10:25:59.602Z,8.35
2022-09-27T10:28:34.941Z,4.10
2022-09-27T10:31:16.344Z,7.03
2022-09-27T10:33:56.112Z,4.78
2022-09-27T10:36:36.075Z,4.07
2022-09-27T10:39:10.066Z,3.97
2022-09-27T10:41:41.845Z,8.15
2022-09-27T10:44:20.538Z,6.12
2022-09-27T10:46:53.330Z,7.32
2022-09-27T10:49:56.959Z,3.92
2022-09-27T10:52:26.454Z,5.40
2022-09-27T10:55:02.108Z,7.65
2022-09-27T10:57:31.953Z,5.35
2022-09-27T11:00:04.931Z,7.93
2022-09-27T11:02:38.294Z,7.72
2022-09-27T11:05:14.741Z,5.95
2022-09-27T11:07:53.446Z,8.63
2022-09-27T11:10:25.218Z,5.37
2022-09-27T11:13:15.920Z,5.60
2022-09-27T11:16:09.854Z,7.82
2022-09-27T11:18:53.558Z,6.18
2022-09-27T11:22:01.303Z,5.20
2022-09-27T11:24:49.023Z,5.43
2022-09-27T11:27:58.125Z,5.15
2022-09-27T11:30:47.589Z,6.93
2022-09-27T11:33:26.050Z,6.47
2022-09-27T11:36:28.501Z,6.50
2022-09-27T11:39:19.094Z,4.60
2022-09-27T11:42:09.748Z,7.55
2022-09-27T11:45:34.258Z,5.87
2022-09-27T11:48:25.012Z,6.50
2022-09-27T11:51:05.494Z,5.12
2022-09-27T11:53:47.846Z,5.95
2022-09-27T11:56:41.547Z,8.35
2022-09-27T11:59:32.766Z,6.37
2022-09-27T12:02:19.307Z,7.65
2022-09-27T12:04:55.627Z,5.18
2022-09-27T12:07:51.457Z,5.28
2022-09-27T12:10:21.417Z,5.32
2022-09-27T12:12:57.924Z,5.60
2022-09-27T12:15:30.936Z,3.87
2022-09-27T12:18:26.892Z,9.20
2022-09-27T12:20:56.708Z,4.20
2022-09-27T12:23:40.509Z,5.60
2022-09-27T12:26:24.102Z,6.18
2022-09-27T12:28:58.006Z,7.75
2022-09-27T12:31:59.595Z,11.05
2022-09-27T12:34:35.739Z,4.60
2022-09-27T12:37:17.119Z,5.00
2022-09-27T12:40:00.824Z,5.85
2022-09-27T12:43:04.798Z,5.28
2022-09-27T12:45:51.244Z,5.07
2022-09-27T12:48:38.545Z,5.28
2022-09-27T12:51:17.557Z,9.70
2022-09-27T12:54:12.863Z,6.95
2022-09-27T12:57:18.124Z,4.70
2022-09-27T12:59:53.224Z,7.40
2022-09-27T13:02:57.458Z,5.80
2022-09-27T13:05:57.060Z,5.60
2022-09-27T13:09:03.071Z,12.77
2022-09-27T13:12:01.349Z,6.57
2022-09-27T13:14:35.396Z,6.82
2022-09-27T13:17:04.794Z,8.80
2022-09-27T13:19:35.887Z,7.32
2022-09-27T13:22:09.567Z,7.60
2022-09-27T13:24:39.320Z,6.62
2022-09-27T13:27:28.694Z,9.90
2022-09-27T13:30:12.093Z,10.80
2022-09-27T13:32:41.055Z,6.82
2022-09-27T13:35:13.001Z,6.28
2022-09-27T13:37:50.725Z,7.62
2022-09-27T13:40:24.281Z,8.98
2022-09-27T13:43:11.408Z,9.82
2022-09-27T13:45:51.741Z,5.70
2022-09-27T13:48:26.856Z,5.62
2022-09-27T13:51:17.502Z,6.32
2022-09-27T13:54:00.810Z,6.50
2022-09-27T13:56:38.347Z,6.62
2022-09-27T13:59:21.163Z,6.45
2022-09-27T14:01:59.853Z,8.10
2022-09-27T14:04:35.572Z,6.32
2022-09-27T14:07:04.801Z,3.42
2022-09-27T14:09:38.829Z,0.98
2022-09-27T14:12:16.485Z,2.72
2022-09-27T14:14:47.687Z,0.82
2022-09-27T14:17:15.984Z,0.77
2022-09-27T14:19:46.249Z,0.35
2022-09-27T14:22:17.584Z,9.68
2022-09-27T14:24:52.862Z,3.78
2022-09-27T14:27:27.179Z,2.77
2022-09-27T14:29:57.786Z,3.12
2022-09-27T14:32:34.630Z,2.58
2022-09-27T14:35:32.684Z,4.37
2022-09-27T14:38:33.203Z,5.28
2022-09-27T14:41:01.201Z,2.30
2022-09-27T14:43:32.488Z,3.30
2022-09-27T14:46:09.713Z,2.42
2022-09-27T14:48:40.173Z,2.65
2022-09-27T14:51:14.277Z,1.08
2022-09-27T14:53:46.788Z,1.70
2022-09-27T14:56:26.146Z,0.77
2022-09-27T14:59:02.630Z,0.20
2022-09-27T15:01:31.802Z,0.30
2022-09-27T15:04:09.346Z,1.52
2022-09-27T15:06:38.808Z,2.75
2022-09-27T15:09:10.199Z,8.35
2022-09-27T15:11:41.807Z,4.70
2022-09-27T15:14:16.295Z,1.85
2022-09-27T15:16:48.001Z,0.03
2022-09-27T15:19:27.081Z,1.10
2022-09-27T15:21:57.553Z,0.60
2022-09-27T15:24:45.778Z,0.60
2022-09-27T15:27:18.241Z,0.50
2022-09-27T15:29:54.931Z,0.28
2022-09-27T15:32:28.629Z,1.00
2022-09-27T15:35:06.077Z,2.05
2022-09-27T15:37:38.054Z,1.70
2022-09-27T15:40:46.290Z,0.88
2022-09-27T15:43:37.251Z,1.33
2022-09-27T15:46:38.603Z,1.33
2022-09-27T15:49:36.353Z,3.12
2022-09-27T15:52:05.774Z,2.35
2022-09-27T15:54:36.376Z,1.08
2022-09-27T15:57:06.112Z,1.15
2022-09-27T15:59:36.378Z,1.92
2022-09-27T16:02:14.531Z,2.62
2022-09-27T16:04:42.905Z,1.30
2022-09-27T16:07:11.809Z,1.20
2022-09-27T16:09:40.111Z,1.70
2022-09-27T16:12:09.106Z,2.70
2022-09-27T16:14:37.176Z,4.18
2022-09-27T16:17:05.377Z,3.67
2022-09-27T16:19:33.976Z,0.30
2022-09-27T16:22:03.697Z,0.50
2022-09-27T16:24:32.543Z,0.40
2022-09-27T16:27:01.075Z,1.23
2022-09-27T16:29:29.142Z,1.65
2022-09-27T16:31:57.845Z,1.90
2022-09-27T16:34:26.316Z,2.47
2022-09-27T16:36:54.474Z,2.20
2022-09-27T16:39:23.096Z,0.82
2022-09-27T16:41:53.253Z,0.50
2022-09-27T16:44:21.324Z,0.75
2022-09-27T16:46:50.318Z,0.50
2022-09-27T16:49:37.615Z,1.05
2022-09-27T16:52:05.853Z,1.00
2022-09-27T16:54:34.473Z,2.03
2022-09-27T16:57:02.564Z,0.30
2022-09-27T16:59:31.091Z,2.25
2022-09-27T17:01:59.703Z,8.18
2022-09-27T17:04:28.544Z,1.23
2022-09-27T17:06:57.165Z,2.67
2022-09-27T17:09:25.935Z,4.55
2022-09-27T17:11:55.368Z,0.93
2022-09-27T17:14:23.975Z,1.33
2022-09-27T17:16:53.132Z,0.30
2022-09-27T17:19:22.191Z,0.47
2022-09-27T17:21:50.875Z,1.17
2022-09-27T17:24:19.297Z,10.07
2022-09-27T17:26:47.597Z,4.12
2022-09-27T17:29:18.357Z,4.68
2022-09-27T17:31:47.038Z,4.72
2022-09-27T17:34:15.675Z,2.03
2022-09-27T17:36:48.344Z,2.47
2022-09-27T17:39:22.321Z,1.62
2022-09-27T17:41:51.293Z,3.33
2022-09-27T17:44:19.996Z,4.22
2022-09-27T17:47:08.302Z,4.80
2022-09-27T17:49:55.210Z,2.08
2022-09-27T17:52:26.798Z,3.20
2022-09-27T17:54:57.531Z,4.55
2022-09-27T17:57:26.094Z,4.35
2022-09-27T17:59:54.850Z,2.00
2022-09-27T18:02:23.396Z,1.10
2022-09-27T18:04:51.896Z,0.82
2022-09-27T18:07:20.159Z,1.02
2022-09-27T18:09:50.180Z,8.30
2022-09-27T18:12:18.880Z,1.33
2022-09-27T18:14:47.092Z,2.85
2022-09-27T18:17:16.742Z,1.80
2022-09-27T18:19:45.163Z,7.35
2022-09-27T18:22:14.183Z,2.20
2022-09-27T18:24:42.340Z,1.33
2022-09-27T18:27:15.824Z,1.00
2022-09-27T18:29:44.280Z,1.67
2022-09-27T18:32:12.721Z,1.62
2022-09-27T18:34:40.916Z,1.73
2022-09-27T18:37:09.363Z,0.82
2022-09-27T18:39:44.093Z,1.62
2022-09-27T18:42:12.436Z,2.20
2022-09-27T18:44:40.941Z,2.65
2022-09-27T18:47:09.101Z,2.35
2022-09-27T18:49:37.458Z,3.50
2022-09-27T18:52:05.773Z,3.83
2022-09-27T18:54:33.940Z,3.08
2022-09-27T18:57:02.267Z,5.28
2022-09-27T18:59:30.595Z,6.10
2022-09-27T19:01:58.988Z,6.62
2022-09-27T19:04:28.154Z,6.00
2022-09-27T19:06:57.601Z,3.70
2022-09-27T19:09:29.842Z,6.25
2022-09-27T19:11:58.485Z,2.83
2022-09-27T19:14:27.812Z,3.00
2022-09-27T19:16:55.987Z,2.35
2022-09-27T19:19:27.062Z,3.42
2022-09-27T19:21:55.109Z,1.45
2022-09-27T19:24:23.270Z,2.92
2022-09-27T19:26:53.710Z,1.62
2022-09-27T19:29:22.356Z,2.10
2022-09-27T19:31:50.774Z,3.67
2022-09-27T19:34:19.376Z,4.47
2022-09-27T19:36:47.456Z,7.62
2022-09-27T19:39:15.670Z,3.40
2022-09-27T19:41:45.720Z,4.00
2022-09-27T19:44:13.987Z,1.77
2022-09-27T19:46:45.224Z,2.30
2022-09-27T19:49:14.498Z,2.83
2022-09-27T19:51:42.655Z,1.00
2022-09-27T19:54:11.485Z,1.35
2022-09-27T19:56:39.823Z,2.60
2022-09-27T19:59:08.206Z,1.70
2022-09-27T20:01:36.508Z,0.98
2022-09-27T20:04:06.021Z,1.42
2022-09-27T20:06:34.620Z,2.97
2022-09-27T20:09:03.175Z,1.58
2022-09-27T20:11:33.182Z,0.88
2022-09-27T20:14:01.929Z,1.12
2022-09-27T20:16:30.077Z,0.77
2022-09-27T20:19:00.777Z,1.67
2022-09-27T20:21:32.608Z,0.80
2022-09-27T20:24:03.032Z,1.77
2022-09-27T20:26:32.292Z,1.75
2022-09-27T20:29:02.281Z,2.20
2022-09-27T20:31:51.696Z,1.25
2022-09-27T20:34:29.553Z,1.58
2022-09-27T20:36:57.643Z,1.00
2022-09-27T20:39:25.711Z,1.20
2022-09-27T20:41:54.042Z,1.85
2022-09-27T20:44:22.257Z,1.12
2022-09-27T20:46:50.417Z,2.12
2022-09-27T20:49:19.668Z,1.40
2022-09-27T20:51:48.706Z,1.00
2022-09-27T20:54:17.119Z,1.35
2022-09-27T20:56:47.653Z,0.75
2022-09-27T20:59:17.280Z,0.85
2022-09-27T21:01:47.781Z,0.75
2022-09-27T21:04:18.415Z,0.75
2022-09-27T21:06:47.051Z,1.60
2022-09-27T21:09:19.092Z,0.77
2022-09-27T21:11:49.258Z,3.10
2022-09-27T21:14:17.517Z,1.33
2022-09-27T21:16:45.877Z,1.12
2022-09-27T21:19:14.536Z,5.97
2022-09-27T21:21:42.881Z,1.00
2022-09-27T21:24:11.490Z,0.62
2022-09-27T21:26:39.858Z,1.08
2022-09-27T21:29:10.386Z,2.85
2022-09-27T21:31:38.688Z,0.40
2022-09-27T21:34:07.489Z,0.95
2022-09-27T21:36:37.693Z,0.68
2022-09-27T21:39:08.894Z,0.40
2022-09-27T21:41:38.926Z,0.57
2022-09-27T21:44:08.078Z,0.65
2022-09-27T21:46:40.183Z,0.30
2022-09-27T21:49:09.235Z,0.70
2022-09-27T21:51:40.120Z,0.25
2022-09-27T21:54:12.848Z,1.35
2022-09-27T21:56:41.982Z,0.17
2022-09-27T21:59:14.196Z,0.77
2022-09-27T22:01:44.126Z,0.45
2022-09-27T22:04:13.062Z,0.40
2022-09-27T22:06:41.594Z,0.25
2022-09-27T22:09:14.859Z,0.20
2022-09-27T22:11:47.884Z,0.32
2022-09-27T22:14:18.140Z,1.10
2022-09-27T22:16:47.436Z,0.43
2022-09-27T22:19:15.920Z,0.32
2022-09-27T22:21:44.094Z,0.20
2022-09-27T22:24:15.685Z,0.20
2022-09-27T22:26:48.279Z,0.52
2022-09-27T22:29:17.129Z,0.22
2022-09-27T22:31:45.435Z,1.05
2022-09-27T22:34:18.854Z,1.08
2022-09-27T22:36:47.418Z,0.45
2022-09-27T22:39:15.452Z,0.20
2022-09-27T22:41:43.596Z,0.30
2022-09-27T22:44:11.947Z,0.62
2022-09-27T22:46:40.107Z,0.35
2022-09-27T22:49:08.644Z,0.20
2022-09-27T22:51:37.049Z,0.43
2022-09-27T22:54:05.369Z,0.20
2022-09-27T22:56:33.637Z,0.10
2022-09-27T22:59:02.045Z,0.20
2022-09-27T23:01:30.365Z,0.20
2022-09-27T23:03:59.431Z,0.15
2022-09-27T23:06:28.205Z,0.37
2022-09-27T23:08:58.124Z,0.20
2022-09-27T23:11:26.197Z,0.17
2022-09-27T23:13:54.472Z,0.30
2022-09-27T23:16:26.128Z,1.58
2022-09-27T23:18:56.696Z,0.65
2022-09-27T23:21:26.700Z,1.60
2022-09-27T23:23:56.994Z,0.50
2022-09-27T23:26:26.942Z,0.47
2022-09-27T23:28:57.837Z,0.20
2022-09-27T23:31:29.731Z,0.20
2022-09-27T23:34:01.638Z,0.25
2022-09-27T23:36:30.008Z,0.10
2022-09-27T23:39:01.138Z,0.00
2022-09-27T23:41:29.489Z,0.35
2022-09-27T23:43:57.815Z,0.08
2022-09-27T23:46:26.790Z,0.20
2022-09-27T23:48:58.938Z,0.25
2022-09-27T23:51:27.536Z,0.10
2022-09-27T23:53:57.143Z,2.75
2022-09-27T23:56:26.744Z,0.20
2022-09-27T23:58:57.977Z,0.20
